Port Augusta West, Australia
Current Conditions -  °F | °C
As of 8:00 AM on Friday 19 Dec 2014 (Local Time) from YWHA Reporting Station
Scattered Clouds Scattered Clouds  
Wind Chill: 64°   Ceiling: Unl
Heat Index: 64°   Visibility: 6mi
Dew Point: 48°   Wind: 12mph
Humidity: 56%   Direction: 130°SE
Pressure: 30.12"   Gusts: NA
Location:  32.48°S, 137.76°E
Report Text: YWHA 182200Z AUTO 13010KT 9999 // SCT038 18/09 Q1020
Loading
Personal Weather Stations






























Interactive Weather Map New forecast layout! Learn more

10-Day Weather Forecast

Advertisements
Track Severe Weather on mobile